sensor_id;sensor_type;location;lat;lon;timestamp;pressure;altitude;pressure_sealevel;temperature;humidity
46836;BME280;32573;51.290;6.926;2023-04-01T00:01:17;97989.09;;;9.72;100.00
46836;BME280;32573;51.290;6.926;2023-04-01T00:03:46;97992.59;;;9.71;100.00
46836;BME280;32573;51.290;6.926;2023-04-01T00:06:18;97986.47;;;9.70;100.00
46836;BME280;32573;51.290;6.926;2023-04-01T00:08:46;97977.78;;;9.70;100.00
46836;BME280;32573;51.290;6.926;2023-04-01T00:11:15;97989.13;;;9.69;100.00
46836;BME280;32573;51.290;6.926;2023-04-01T00:13:46;97991.72;;;9.70;100.00
46836;BME280;32573;51.290;6.926;2023-04-01T00:16:15;97994.31;;;9.70;100.00
46836;BME280;32573;51.290;6.926;2023-04-01T00:18:49;97998.66;;;9.73;100.00
46836;BME280;32573;51.290;6.926;2023-04-01T00:21:20;97985.59;;;9.75;100.00
46836;BME280;32573;51.290;6.926;2023-04-01T00:23:49;97983.84;;;9.77;100.00
46836;BME280;32573;51.290;6.926;2023-04-01T00:26:18;97984.72;;;9.79;100.00
46836;BME280;32573;51.290;6.926;2023-04-01T00:28:49;97984.72;;;9.82;100.00
46836;BME280;32573;51.290;6.926;2023-04-01T00:31:18;97977.72;;;9.81;100.00
46836;BME280;32573;51.290;6.926;2023-04-01T00:33:47;97972.50;;;9.82;100.00
46836;BME280;32573;51.290;6.926;2023-04-01T00:36:19;97985.56;;;9.84;100.00
46836;BME280;32573;51.290;6.926;2023-04-01T00:38:50;97981.22;;;9.84;100.00
46836;BME280;32573;51.290;6.926;2023-04-01T00:41:20;97986.44;;;9.84;100.00
46836;BME280;32573;51.290;6.926;2023-04-01T00:43:50;97984.69;;;9.83;100.00
46836;BME280;32573;51.290;6.926;2023-04-01T00:46:19;97978.56;;;9.86;100.00
46836;BME280;32573;51.290;6.926;2023-04-01T00:48:51;97983.78;;;9.86;100.00
46836;BME280;32573;51.290;6.926;2023-04-01T00:51:25;97968.16;;;9.84;100.00
46836;BME280;32573;51.290;6.926;2023-04-01T00:53:59;97971.63;;;9.85;100.00
46836;BME280;32573;51.290;6.926;2023-04-01T00:56:32;97991.66;;;9.83;100.00
46836;BME280;32573;51.290;6.926;2023-04-01T00:59:04;97970.75;;;9.83;100.00
46836;BME280;32573;51.290;6.926;2023-04-01T01:01:35;97967.31;;;9.79;100.00
46836;BME280;32573;51.290;6.926;2023-04-01T01:04:04;97976.88;;;9.79;100.00
46836;BME280;32573;51.290;6.926;2023-04-01T01:06:42;97963.81;;;9.77;100.00
46836;BME280;32573;51.290;6.926;2023-04-01T01:09:25;97946.44;;;9.76;100.00
46836;BME280;32573;51.290;6.926;2023-04-01T01:12:03;97959.47;;;9.75;100.00
46836;BME280;32573;51.290;6.926;2023-04-01T01:14:43;97961.19;;;9.76;100.00
46836;BME280;32573;51.290;6.926;2023-04-01T01:17:19;97971.66;;;9.76;100.00
46836;BME280;32573;51.290;6.926;2023-04-01T01:20:14;97959.47;;;9.75;100.00
46836;BME280;32573;51.290;6.926;2023-04-01T01:23:07;97964.72;;;9.75;100.00
46836;BME280;32573;51.290;6.926;2023-04-01T01:25:48;97956.88;;;9.75;100.00
46836;BME280;32573;51.290;6.926;2023-04-01T01:28:33;97969.94;;;9.75;100.00
46836;BME280;32573;51.290;6.926;2023-04-01T01:31:11;97962.97;;;9.75;100.00
46836;BME280;32573;51.290;6.926;2023-04-01T01:33:53;97964.72;;;9.75;100.00
46836;BME280;32573;51.290;6.926;2023-04-01T01:36:32;97973.44;;;9.74;100.00
46836;BME280;32573;51.290;6.926;2023-04-01T01:39:06;97956.00;;;9.72;100.00
46836;BME280;32573;51.290;6.926;2023-04-01T01:41:39;97957.75;;;9.72;100.00
46836;BME280;32573;51.290;6.926;2023-04-01T01:44:12;97962.13;;;9.71;100.00
46836;BME280;32573;51.290;6.926;2023-04-01T01:46:43;97957.75;;;9.70;100.00
46836;BME280;32573;51.290;6.926;2023-04-01T01:49:14;97962.97;;;9.70;100.00
46836;BME280;32573;51.290;6.926;2023-04-01T01:51:44;97958.63;;;9.69;100.00
46836;BME280;32573;51.290;6.926;2023-04-01T01:54:14;97962.13;;;9.68;100.00
46836;BME280;32573;51.290;6.926;2023-04-01T01:56:44;97963.84;;;9.69;100.00
46836;BME280;32573;51.290;6.926;2023-04-01T01:59:18;97959.53;;;9.67;100.00
46836;BME280;32573;51.290;6.926;2023-04-01T02:01:50;97966.50;;;9.66;100.00
46836;BME280;32573;51.290;6.926;2023-04-01T02:04:21;97959.50;;;9.65;100.00
46836;BME280;32573;51.290;6.926;2023-04-01T02:06:56;97963.00;;;9.64;100.00
46836;BME280;32573;51.290;6.926;2023-04-01T02:09:28;97975.22;;;9.62;100.00
46836;BME280;32573;51.290;6.926;2023-04-01T02:11:59;97957.81;;;9.61;100.00
46836;BME280;32573;51.290;6.926;2023-04-01T02:14:39;97956.09;;;9.59;100.00
46836;BME280;32573;51.290;6.926;2023-04-01T02:17:12;97972.59;;;9.58;100.00
46836;BME280;32573;51.290;6.926;2023-04-01T02:19:47;97959.56;;;9.56;100.00
46836;BME280;32573;51.290;6.926;2023-04-01T02:22:21;97965.66;;;9.55;100.00
46836;BME280;32573;51.290;6.926;2023-04-01T02:24:52;97954.34;;;9.53;100.00
46836;BME280;32573;51.290;6.926;2023-04-01T02:27:21;97948.28;;;9.51;100.00
46836;BME280;32573;51.290;6.926;2023-04-01T02:29:51;97972.63;;;9.50;100.00
46836;BME280;32573;51.290;6.926;2023-04-01T02:32:20;97964.81;;;9.50;100.00
46836;BME280;32573;51.290;6.926;2023-04-01T02:34:49;97964.81;;;9.47;100.00
46836;BME280;32573;51.290;6.926;2023-04-01T02:37:19;97968.31;;;9.49;100.00
46836;BME280;32573;51.290;6.926;2023-04-01T02:39:48;97968.28;;;9.46;100.00
46836;BME280;32573;51.290;6.926;2023-04-01T02:42:17;97967.44;;;9.45;100.00
46836;BME280;32573;51.290;6.926;2023-04-01T02:44:45;97963.94;;;9.43;100.00
46836;BME280;32573;51.290;6.926;2023-04-01T02:47:14;97962.22;;;9.42;100.00
46836;BME280;32573;51.290;6.926;2023-04-01T02:49:42;97974.41;;;9.42;100.00
46836;BME280;32573;51.290;6.926;2023-04-01T02:52:11;97972.69;;;9.39;100.00
46836;BME280;32573;51.290;6.926;2023-04-01T02:54:40;97970.06;;;9.38;100.00
46836;BME280;32573;51.290;6.926;2023-04-01T02:57:09;97973.56;;;9.37;100.00
46836;BME280;32573;51.290;6.926;2023-04-01T02:59:37;97966.59;;;9.36;100.00
46836;BME280;32573;51.290;6.926;2023-04-01T03:02:06;97977.03;;;9.36;100.00
46836;BME280;32573;51.290;6.926;2023-04-01T03:04:34;97975.31;;;9.33;100.00
46836;BME280;32573;51.290;6.926;2023-04-01T03:07:03;97982.28;;;9.33;100.00
46836;BME280;32573;51.290;6.926;2023-04-01T03:09:32;97979.69;;;9.31;100.00
46836;BME280;32573;51.290;6.926;2023-04-01T03:12:02;97977.94;;;9.30;100.00
46836;BME280;32573;51.290;6.926;2023-04-01T03:14:35;97976.19;;;9.29;100.00
46836;BME280;32573;51.290;6.926;2023-04-01T03:17:03;97980.56;;;9.28;100.00
46836;BME280;32573;51.290;6.926;2023-04-01T03:19:32;97989.25;;;9.27;100.00
46836;BME280;32573;51.290;6.926;2023-04-01T03:22:05;97983.16;;;9.27;100.00
46836;BME280;32573;51.290;6.926;2023-04-01T03:24:34;97977.94;;;9.27;100.00
46836;BME280;32573;51.290;6.926;2023-04-01T03:27:04;97987.53;;;9.26;100.00
46836;BME280;32573;51.290;6.926;2023-04-01T03:29:32;97989.25;;;9.26;100.00
46836;BME280;32573;51.290;6.926;2023-04-01T03:32:01;97992.75;;;9.26;100.00
46836;BME280;32573;51.290;6.926;2023-04-01T03:34:29;97997.97;;;9.26;100.00
46836;BME280;32573;51.290;6.926;2023-04-01T03:36:58;97984.00;;;9.26;100.00
46836;BME280;32573;51.290;6.926;2023-04-01T03:39:26;97992.72;;;9.25;100.00
46836;BME280;32573;51.290;6.926;2023-04-01T03:41:55;97994.47;;;9.24;100.00
46836;BME280;32573;51.290;6.926;2023-04-01T03:44:25;97997.94;;;9.23;100.00
46836;BME280;32573;51.290;6.926;2023-04-01T03:46:54;97998.81;;;9.22;100.00
46836;BME280;32573;51.290;6.926;2023-04-01T03:49:23;98006.66;;;9.22;100.00
46836;BME280;32573;51.290;6.926;2023-04-01T03:51:52;97991.00;;;9.22;100.00
46836;BME280;32573;51.290;6.926;2023-04-01T03:54:20;97997.94;;;9.23;100.00
46836;BME280;32573;51.290;6.926;2023-04-01T03:56:49;97998.81;;;9.22;100.00
46836;BME280;32573;51.290;6.926;2023-04-01T03:59:18;97997.94;;;9.23;100.00
46836;BME280;32573;51.290;6.926;2023-04-01T04:01:48;98001.44;;;9.22;100.00
46836;BME280;32573;51.290;6.926;2023-04-01T04:04:16;97996.22;;;9.22;100.00
46836;BME280;32573;51.290;6.926;2023-04-01T04:06:45;97998.81;;;9.22;100.00
46836;BME280;32573;51.290;6.926;2023-04-01T04:09:15;98003.19;;;9.22;100.00
46836;BME280;32573;51.290;6.926;2023-04-01T04:11:43;98007.53;;;9.23;100.00
46836;BME280;32573;51.290;6.926;2023-04-01T04:14:12;98015.38;;;9.21;100.00
46836;BME280;32573;51.290;6.926;2023-04-01T04:16:41;98014.50;;;9.22;100.00
46836;BME280;32573;51.290;6.926;2023-04-01T04:19:11;98010.16;;;9.21;100.00
46836;BME280;32573;51.290;6.926;2023-04-01T04:21:40;98006.66;;;9.22;100.00
46836;BME280;32573;51.290;6.926;2023-04-01T04:24:09;98010.16;;;9.21;100.00
46836;BME280;32573;51.290;6.926;2023-04-01T04:27:01;98013.63;;;9.22;100.00
46836;BME280;32573;51.290;6.926;2023-04-01T04:29:29;98011.88;;;9.22;100.00
46836;BME280;32573;51.290;6.926;2023-04-01T04:31:59;98011.00;;;9.23;100.00
46836;BME280;32573;51.290;6.926;2023-04-01T04:34:30;98007.53;;;9.21;100.00
46836;BME280;32573;51.290;6.926;2023-04-01T04:36:58;98004.91;;;9.23;100.00
46836;BME280;32573;51.290;6.926;2023-04-01T04:39:31;98011.00;;;9.23;100.00
46836;BME280;32573;51.290;6.926;2023-04-01T04:42:00;98017.09;;;9.22;100.00
46836;BME280;32573;51.290;6.926;2023-04-01T04:44:28;98011.88;;;9.22;100.00
46836;BME280;32573;51.290;6.926;2023-04-01T04:46:57;98012.75;;;9.21;100.00
46836;BME280;32573;51.290;6.926;2023-04-01T04:49:26;98016.25;;;9.22;100.00
46836;BME280;32573;51.290;6.926;2023-04-01T04:51:56;98023.19;;;9.23;100.00
46836;BME280;32573;51.290;6.926;2023-04-01T04:54:27;98025.81;;;9.21;100.00
46836;BME280;32573;51.290;6.926;2023-04-01T04:56:58;98031.03;;;9.21;100.00
46836;BME280;32573;51.290;6.926;2023-04-01T04:59:30;98027.53;;;9.22;100.00
46836;BME280;32573;51.290;6.926;2023-04-01T05:02:10;98030.13;;;9.21;100.00
46836;BME280;32573;51.290;6.926;2023-04-01T05:04:39;98027.53;;;9.22;100.00
46836;BME280;32573;51.290;6.926;2023-04-01T05:07:11;98034.50;;;9.20;100.00
46836;BME280;32573;51.290;6.926;2023-04-01T05:09:40;98034.50;;;9.20;100.00
46836;BME280;32573;51.290;6.926;2023-04-01T05:12:08;98035.38;;;9.19;100.00
46836;BME280;32573;51.290;6.926;2023-04-01T05:14:55;98037.13;;;9.17;100.00
46836;BME280;32573;51.290;6.926;2023-04-01T05:17:24;98044.94;;;9.17;100.00
46836;BME280;32573;51.290;6.926;2023-04-01T05:19:53;98033.66;;;9.17;100.00
46836;BME280;32573;51.290;6.926;2023-04-01T05:22:23;98034.50;;;9.17;100.00
46836;BME280;32573;51.290;6.926;2023-04-01T05:24:52;98044.94;;;9.17;100.00
46836;BME280;32573;51.290;6.926;2023-04-01T05:27:21;98039.72;;;9.17;100.00
46836;BME280;32573;51.290;6.926;2023-04-01T05:29:50;98042.34;;;9.16;100.00
46836;BME280;32573;51.290;6.926;2023-04-01T05:32:37;98044.09;;;9.17;100.00
46836;BME280;32573;51.290;6.926;2023-04-01T05:35:06;98047.53;;;9.16;100.00
46836;BME280;32573;51.290;6.926;2023-04-01T05:37:36;98054.50;;;9.15;100.00
46836;BME280;32573;51.290;6.926;2023-04-01T05:40:06;98051.91;;;9.15;100.00
46836;BME280;32573;51.290;6.926;2023-04-01T05:42:35;98048.44;;;9.15;100.00
46836;BME280;32573;51.290;6.926;2023-04-01T05:45:05;98051.91;;;9.15;100.00
46836;BME280;32573;51.290;6.926;2023-04-01T05:47:53;98051.91;;;9.15;100.00
46836;BME280;32573;51.290;6.926;2023-04-01T05:50:21;98052.78;;;9.14;100.00
46836;BME280;32573;51.290;6.926;2023-04-01T05:52:52;98058.88;;;9.15;100.00
46836;BME280;32573;51.290;6.926;2023-04-01T05:55:22;98060.63;;;9.14;100.00
46836;BME280;32573;51.290;6.926;2023-04-01T05:57:51;98065.84;;;9.14;100.00
46836;BME280;32573;51.290;6.926;2023-04-01T06:00:20;98058.84;;;9.13;100.00
46836;BME280;32573;51.290;6.926;2023-04-01T06:02:49;98068.44;;;9.13;100.00
46836;BME280;32573;51.290;6.926;2023-04-01T06:05:20;98066.72;;;9.12;100.00
46836;BME280;32573;51.290;6.926;2023-04-01T06:07:51;98064.97;;;9.12;100.00
46836;BME280;32573;51.290;6.926;2023-04-01T06:10:33;98072.78;;;9.12;100.00
46836;BME280;32573;51.290;6.926;2023-04-01T06:13:11;98065.84;;;9.11;100.00
46836;BME280;32573;51.290;6.926;2023-04-01T06:15:53;98076.28;;;9.11;100.00
46836;BME280;32573;51.290;6.926;2023-04-01T06:18:41;98069.31;;;9.10;100.00
46836;BME280;32573;51.290;6.926;2023-04-01T06:21:26;98067.59;;;9.09;100.00
46836;BME280;32573;51.290;6.926;2023-04-01T06:24:14;98071.91;;;9.10;100.00
46836;BME280;32573;51.290;6.926;2023-04-01T06:26:51;98073.66;;;9.10;100.00
46836;BME280;32573;51.290;6.926;2023-04-01T06:35:46;98084.97;;;9.10;100.00
46836;BME280;32573;51.290;6.926;2023-04-01T06:38:34;98094.56;;;9.11;100.00
46836;BME280;32573;51.290;6.926;2023-04-01T06:41:35;98087.59;;;9.12;100.00
46836;BME280;32573;51.290;6.926;2023-04-01T06:44:14;98092.81;;;9.12;100.00
46836;BME280;32573;51.290;6.926;2023-04-01T06:47:30;98089.31;;;9.13;100.00
46836;BME280;32573;51.290;6.926;2023-04-01T06:50:25;98093.66;;;9.12;100.00
46836;BME280;32573;51.290;6.926;2023-04-01T06:53:17;98098.00;;;9.13;100.00
46836;BME280;32573;51.290;6.926;2023-04-01T06:56:08;98091.94;;;9.14;100.00
46836;BME280;32573;51.290;6.926;2023-04-01T06:58:52;98094.53;;;9.14;100.00
46836;BME280;32573;51.290;6.926;2023-04-01T07:01:25;98092.81;;;9.15;100.00
46836;BME280;32573;51.290;6.926;2023-04-01T07:03:57;98101.50;;;9.15;100.00
46836;BME280;32573;51.290;6.926;2023-04-01T07:06:32;98097.16;;;9.14;100.00
46836;BME280;32573;51.290;6.926;2023-04-01T07:09:05;98100.63;;;9.15;100.00
46836;BME280;32573;51.290;6.926;2023-04-01T07:11:59;98101.50;;;9.15;100.00
46836;BME280;32573;51.290;6.926;2023-04-01T07:14:52;98102.34;;;9.16;100.00
46836;BME280;32573;51.290;6.926;2023-04-01T07:17:26;98102.34;;;9.16;100.00
46836;BME280;32573;51.290;6.926;2023-04-01T07:19:59;98102.38;;;9.17;100.00
46836;BME280;32573;51.290;6.926;2023-04-01T07:22:32;98110.19;;;9.17;100.00
46836;BME280;32573;51.290;6.926;2023-04-01T07:25:31;98114.53;;;9.18;100.00
46836;BME280;32573;51.290;6.926;2023-04-01T07:28:34;98120.66;;;9.19;100.00
46836;BME280;32573;51.290;6.926;2023-04-01T07:31:23;98122.38;;;9.20;100.00
46836;BME280;32573;51.290;6.926;2023-04-01T07:34:01;98128.47;;;9.20;100.00
46836;BME280;32573;51.290;6.926;2023-04-01T07:36:37;98129.31;;;9.21;100.00
46836;BME280;32573;51.290;6.926;2023-04-01T07:39:15;98129.34;;;9.22;100.00
46836;BME280;32573;51.290;6.926;2023-04-01T07:42:09;98134.56;;;9.22;100.00
46836;BME280;32573;51.290;6.926;2023-04-01T07:44:49;98145.00;;;9.22;100.00
46836;BME280;32573;51.290;6.926;2023-04-01T07:47:33;98140.66;;;9.21;100.00
46836;BME280;32573;51.290;6.926;2023-04-01T07:50:13;98145.00;;;9.22;100.00
46836;BME280;32573;51.290;6.926;2023-04-01T07:52:51;98153.69;;;9.23;100.00
46836;BME280;32573;51.290;6.926;2023-04-01T07:55:30;98148.47;;;9.23;100.00
46836;BME280;32573;51.290;6.926;2023-04-01T07:58:06;98151.09;;;9.24;100.00
46836;BME280;32573;51.290;6.926;2023-04-01T08:00:46;98153.69;;;9.23;100.00
46836;BME280;32573;51.290;6.926;2023-04-01T08:03:35;98158.06;;;9.22;100.00
46836;BME280;32573;51.290;6.926;2023-04-01T08:06:12;98161.53;;;9.21;100.00
46836;BME280;32573;51.290;6.926;2023-04-01T08:08:51;98170.22;;;9.20;100.00
46836;BME280;32573;51.290;6.926;2023-04-01T08:11:54;98188.50;;;9.22;100.00
46836;BME280;32573;51.290;6.926;2023-04-01T08:15:03;98174.56;;;9.23;100.00
46836;BME280;32573;51.290;6.926;2023-04-01T08:18:03;98181.53;;;9.22;100.00
46836;BME280;32573;51.290;6.926;2023-04-01T08:20:38;98183.28;;;9.22;100.00
46836;BME280;32573;51.290;6.926;2023-04-01T08:23:12;98191.09;;;9.23;100.00
46836;BME280;32573;51.290;6.926;2023-04-01T08:25:48;98201.53;;;9.23;100.00
46836;BME280;32573;51.290;6.926;2023-04-01T08:28:24;98193.72;;;9.23;100.00
46836;BME280;32573;51.290;6.926;2023-04-01T08:30:55;98198.06;;;9.26;100.00
46836;BME280;32573;51.290;6.926;2023-04-01T08:33:28;98200.69;;;9.24;100.00
46836;BME280;32573;51.290;6.926;2023-04-01T08:36:15;98203.28;;;9.26;100.00
46836;BME280;32573;51.290;6.926;2023-04-01T08:38:52;98200.66;;;9.26;100.00
46836;BME280;32573;51.290;6.926;2023-04-01T08:41:48;98202.41;;;9.25;100.00
46836;BME280;32573;51.290;6.926;2023-04-01T08:48:17;98194.63;;;9.28;100.00
46836;BME280;32573;51.290;6.926;2023-04-01T08:51:14;98214.63;;;9.29;100.00
46836;BME280;32573;51.290;6.926;2023-04-01T08:54:00;98211.13;;;9.29;100.00
46836;BME280;32573;51.290;6.926;2023-04-01T08:56:34;98210.28;;;9.32;100.00
46836;BME280;32573;51.290;6.926;2023-04-01T08:59:23;98217.22;;;9.33;100.00
46836;BME280;32573;51.290;6.926;2023-04-01T09:02:17;98223.31;;;9.35;100.00
46836;BME280;32573;51.290;6.926;2023-04-01T09:08:15;98230.28;;;9.36;100.00
46836;BME280;32573;51.290;6.926;2023-04-01T09:11:00;98229.41;;;9.37;100.00
46836;BME280;32573;51.290;6.926;2023-04-01T09:14:06;98238.13;;;9.37;100.00
46836;BME280;32573;51.290;6.926;2023-04-01T09:17:14;98239.88;;;9.37;100.00
46836;BME280;32573;51.290;6.926;2023-04-01T09:20:17;98243.34;;;9.39;100.00
46836;BME280;32573;51.290;6.926;2023-04-01T09:23:02;98251.19;;;9.39;100.00
46836;BME280;32573;51.290;6.926;2023-04-01T09:26:02;98251.16;;;9.40;100.00
46836;BME280;32573;51.290;6.926;2023-04-01T09:28:42;98258.16;;;9.41;100.00
46836;BME280;32573;51.290;6.926;2023-04-01T09:31:29;98254.69;;;9.44;100.00
46836;BME280;32573;51.290;6.926;2023-04-01T09:34:52;98256.41;;;9.46;100.00
46836;BME280;32573;51.290;6.926;2023-04-01T09:37:34;98266.84;;;9.49;100.00
46836;BME280;32573;51.290;6.926;2023-04-01T09:40:18;98276.41;;;9.50;100.00
46836;BME280;32573;51.290;6.926;2023-04-01T09:43:13;98267.72;;;9.53;100.00
46836;BME280;32573;51.290;6.926;2023-04-01T09:45:52;98276.44;;;9.55;100.00
46836;BME280;32573;51.290;6.926;2023-04-01T09:48:40;98276.44;;;9.58;100.00
46836;BME280;32573;51.290;6.926;2023-04-01T09:51:25;98278.19;;;9.59;100.00
46836;BME280;32573;51.290;6.926;2023-04-01T09:54:04;98276.44;;;9.61;100.00
46836;BME280;32573;51.290;6.926;2023-04-01T09:57:14;98279.06;;;9.64;100.00
46836;BME280;32573;51.290;6.926;2023-04-01T10:00:20;98291.25;;;9.68;100.00
46836;BME280;32573;51.290;6.926;2023-04-01T10:07:03;98293.84;;;9.73;100.00
46836;BME280;32573;51.290;6.926;2023-04-01T10:10:20;98293.88;;;9.71;100.00
46836;BME280;32573;51.290;6.926;2023-04-01T10:22:50;98313.88;;;9.72;100.00
46836;BME280;32573;51.290;6.926;2023-04-01T10:25:53;98314.78;;;9.71;100.00
46836;BME280;32573;51.290;6.926;2023-04-01T10:28:57;98317.38;;;9.71;100.00
46836;BME280;32573;51.290;6.926;2023-04-01T10:35:30;98321.72;;;9.69;100.00
46836;BME280;32573;51.290;6.926;2023-04-01T10:41:26;98333.06;;;9.68;100.00
46836;BME280;32573;51.290;6.926;2023-04-01T10:44:41;98326.97;;;9.66;100.00
46836;BME280;32573;51.290;6.926;2023-04-01T10:47:59;98328.69;;;9.67;100.00
46836;BME280;32573;51.290;6.926;2023-04-01T10:51:06;98334.78;;;9.66;100.00
46836;BME280;32573;51.290;6.926;2023-04-01T10:54:02;98335.66;;;9.65;100.00
46836;BME280;32573;51.290;6.926;2023-04-01T10:57:42;98333.91;;;9.61;100.00
46836;BME280;32573;51.290;6.926;2023-04-01T11:01:05;98339.13;;;9.61;100.00
46836;BME280;32573;51.290;6.926;2023-04-01T11:04:56;98351.31;;;9.61;100.00
46836;BME280;32573;51.290;6.926;2023-04-01T11:08:12;98346.94;;;9.58;100.00
46836;BME280;32573;51.290;6.926;2023-04-01T11:14:25;98351.28;;;9.53;100.00
46836;BME280;32573;51.290;6.926;2023-04-01T11:17:14;98353.06;;;9.54;100.00
46836;BME280;32573;51.290;6.926;2023-04-01T11:23:13;98356.53;;;9.56;100.00
46836;BME280;32573;51.290;6.926;2023-04-01T11:26:06;98365.22;;;9.58;100.00
46836;BME280;32573;51.290;6.926;2023-04-01T11:29:41;98361.75;;;9.59;100.00
46836;BME280;32573;51.290;6.926;2023-04-01T11:32:42;98370.47;;;9.63;100.00
46836;BME280;32573;51.290;6.926;2023-04-01T11:35:42;98371.38;;;9.66;100.00
46836;BME280;32573;51.290;6.926;2023-04-01T11:38:34;98369.63;;;9.70;100.00
46836;BME280;32573;51.290;6.926;2023-04-01T11:41:32;98374.00;;;9.71;100.00
46836;BME280;32573;51.290;6.926;2023-04-01T11:44:23;98377.47;;;9.75;100.00
46836;BME280;32573;51.290;6.926;2023-04-01T11:47:22;98384.44;;;9.76;100.00
46836;BME280;32573;51.290;6.926;2023-04-01T11:50:01;98383.56;;;9.75;100.00
46836;BME280;32573;51.290;6.926;2023-04-01T11:52:59;98380.97;;;9.77;100.00
46836;BME280;32573;51.290;6.926;2023-04-01T11:55:40;98387.91;;;9.78;100.00
46836;BME280;32573;51.290;6.926;2023-04-01T11:58:32;98396.63;;;9.77;100.00
46836;BME280;32573;51.290;6.926;2023-04-01T12:01:20;98402.72;;;9.77;100.00
46836;BME280;32573;51.290;6.926;2023-04-01T12:04:18;98401.88;;;9.77;100.00
46836;BME280;32573;51.290;6.926;2023-04-01T12:06:59;98405.34;;;9.79;100.00
46836;BME280;32573;51.290;6.926;2023-04-01T12:09:37;98407.09;;;9.80;100.00
46836;BME280;32573;51.290;6.926;2023-04-01T12:12:18;98414.03;;;9.81;100.00
46836;BME280;32573;51.290;6.926;2023-04-01T12:14:57;98414.94;;;9.80;100.00
46836;BME280;32573;51.290;6.926;2023-04-01T12:17:34;98414.91;;;9.78;100.00
46836;BME280;32573;51.290;6.926;2023-04-01T12:20:31;98419.28;;;9.78;100.00
46836;BME280;32573;51.290;6.926;2023-04-01T12:23:13;98436.69;;;9.77;100.00
46836;BME280;32573;51.290;6.926;2023-04-01T12:26:16;98428.00;;;9.77;100.00
46836;BME280;32573;51.290;6.926;2023-04-01T12:28:59;98426.22;;;9.76;100.00
46836;BME280;32573;51.290;6.926;2023-04-01T12:31:38;98429.72;;;9.78;100.00
46836;BME280;32573;51.290;6.926;2023-04-01T12:34:34;98438.44;;;9.77;100.00
46836;BME280;32573;51.290;6.926;2023-04-01T12:37:14;98440.19;;;9.78;100.00
46836;BME280;32573;51.290;6.926;2023-04-01T12:40:00;98451.50;;;9.78;100.00
46836;BME280;32573;51.290;6.926;2023-04-01T12:42:50;98447.16;;;9.77;100.00
46836;BME280;32573;51.290;6.926;2023-04-01T12:45:30;98459.31;;;9.78;100.00
46836;BME280;32573;51.290;6.926;2023-04-01T12:48:21;98452.38;;;9.79;100.00
46836;BME280;32573;51.290;6.926;2023-04-01T12:51:09;98462.84;;;9.79;100.00
46836;BME280;32573;51.290;6.926;2023-04-01T12:54:04;98469.81;;;9.81;100.00
46836;BME280;32573;51.290;6.926;2023-04-01T12:56:44;98473.28;;;9.79;100.00
46836;BME280;32573;51.290;6.926;2023-04-01T12:59:38;98473.28;;;9.79;100.00
46836;BME280;32573;51.290;6.926;2023-04-01T13:02:13;98466.28;;;9.78;100.00
46836;BME280;32573;51.290;6.926;2023-04-01T13:05:24;98468.91;;;9.78;100.00
46836;BME280;32573;51.290;6.926;2023-04-01T13:08:11;98482.84;;;9.78;100.00
46836;BME280;32573;51.290;6.926;2023-04-01T13:10:58;98476.75;;;9.78;100.00
46836;BME280;32573;51.290;6.926;2023-04-01T13:16:31;98481.97;;;9.81;100.00
46836;BME280;32573;51.290;6.926;2023-04-01T13:19:08;98483.72;;;9.80;100.00
46836;BME280;32573;51.290;6.926;2023-04-01T13:21:43;98495.06;;;9.82;100.00
46836;BME280;32573;51.290;6.926;2023-04-01T13:24:25;98496.78;;;9.83;100.00
46836;BME280;32573;51.290;6.926;2023-04-01T13:27:03;98504.66;;;9.85;100.00
46836;BME280;32573;51.290;6.926;2023-04-01T13:29:36;98504.66;;;9.85;100.00
46836;BME280;32573;51.290;6.926;2023-04-01T13:32:17;98504.66;;;9.85;100.00
46836;BME280;32573;51.290;6.926;2023-04-01T13:35:02;98509.00;;;9.87;100.00
46836;BME280;32573;51.290;6.926;2023-04-01T13:37:48;98513.38;;;9.87;100.00
46836;BME280;32573;51.290;6.926;2023-04-01T13:40:30;98511.59;;;9.86;100.00
46836;BME280;32573;51.290;6.926;2023-04-01T13:43:04;98516.84;;;9.87;100.00
46836;BME280;32573;51.290;6.926;2023-04-01T13:45:47;98517.75;;;9.89;100.00
46836;BME280;32573;51.290;6.926;2023-04-01T13:48:32;98520.34;;;9.89;100.00
46836;BME280;32573;51.290;6.926;2023-04-01T13:51:18;98527.31;;;9.92;100.00
46836;BME280;32573;51.290;6.926;2023-04-01T13:56:50;98516.88;;;9.92;100.00
46836;BME280;32573;51.290;6.926;2023-04-01T13:59:46;98523.84;;;9.90;100.00
46836;BME280;32573;51.290;6.926;2023-04-01T14:05:28;98529.06;;;9.90;100.00
46836;BME280;32573;51.290;6.926;2023-04-01T14:08:20;98525.59;;;9.91;100.00
46836;BME280;32573;51.290;6.926;2023-04-01T14:11:02;98536.91;;;9.93;100.00
46836;BME280;32573;51.290;6.926;2023-04-01T14:13:39;98535.16;;;9.92;100.00
46836;BME280;32573;51.290;6.926;2023-04-01T14:16:47;98547.38;;;9.91;100.00
46836;BME280;32573;51.290;6.926;2023-04-01T14:19:30;98544.75;;;9.93;100.00
46836;BME280;32573;51.290;6.926;2023-04-01T14:22:13;98543.91;;;9.94;100.00
46836;BME280;32573;51.290;6.926;2023-04-01T14:24:57;98542.13;;;9.93;100.00
46836;BME280;32573;51.290;6.926;2023-04-01T14:30:35;98549.13;;;9.94;100.00
46836;BME280;32573;51.290;6.926;2023-04-01T14:33:23;98546.50;;;9.94;100.00
46836;BME280;32573;51.290;6.926;2023-04-01T14:36:05;98553.47;;;9.95;100.00
46836;BME280;32573;51.290;6.926;2023-04-01T14:38:52;98561.31;;;9.93;100.00
46836;BME280;32573;51.290;6.926;2023-04-01T14:41:35;98556.97;;;9.91;100.00
46836;BME280;32573;51.290;6.926;2023-04-01T14:44:22;98561.31;;;9.92;100.00
46836;BME280;32573;51.290;6.926;2023-04-01T14:47:20;98568.25;;;9.90;100.00
46836;BME280;32573;51.290;6.926;2023-04-01T14:50:03;98567.41;;;9.91;100.00
46836;BME280;32573;51.290;6.926;2023-04-01T14:52:37;98572.63;;;9.91;100.00
46836;BME280;32573;51.290;6.926;2023-04-01T14:55:28;98580.47;;;9.91;100.00
46836;BME280;32573;51.290;6.926;2023-04-01T14:58:08;98570.88;;;9.90;100.00
46836;BME280;32573;51.290;6.926;2023-04-01T15:00:48;98579.59;;;9.89;100.00
46836;BME280;32573;51.290;6.926;2023-04-01T15:03:23;98576.13;;;9.88;100.00